Briefing drone pour Coulanges-les-nevers

Rechercher une autre localisation

Conditions de vol :


Nous sommes le : Mardi 30 novembre 2021
Il est 00:15 UTC (01:15 LT)

Lever de soleil : 06:45 UTC (07:45 LT)
Coucher de soleil : 16:26 UTC (17:26 LT)

Météo

L'essentiel des conditions de vol

VIGILANCE MÉTÉO FRANCE - Nièvre (58)
Pas de vigilances particulieres
CARTE TEMSI
CARTES DES FRONTS
METAR de LFQG
LFQG 291800Z AUTO 19003KT 9999 BKN027 BKN036 01/00 Q1019

Date d'émission: 29/11/2021
Heure d'émission: 18:00 UTC
Vent: 190° pour 3 KT (6 km/h)
Visibilité horizontale: > 10 km
Plafond :
- Nuages morcelés à 2700ft (823m)
- Nuages morcelés à 3600ft (1097m)
Température: 1 °C
Point de rosée: 0 °C
Humidité: 93%
Pression (QNH): 1019 hPa
Prévision 24h pour Nevers (1 km)
Vent : 209° pour 3 KT (9 km/h)
Temperature Maxi: 2 °C
Temperature Min: 2 °C
Humidité : 78%
Condition : Couvert



Warning: count(): Parameter must be an array or an object that implements Countable in /homepages/6/d509196549/htdocs/droneoxygene/briefing.php on line 743
WEBCAM POUR COULANGES-LES-NEVERS

Réglementation

Voler en sécurité

CARTES AERONAUTIQUE 1/500.000
CARTES VAC (LFQG)
SUP AIP




Chargement des AIP...
NOTAM (COULANGES-LES-NEVERS + Terrain à proximité / FIR )




Chargement des NOTAMS...
CONTACT PREFECTURE 58


Avertissement : Les données mises à disposition sont indicatives. Oxygène Drone ne pourra être tenu responsable de dégâts causés aux biens et aux personnes.